Time;durP1;ratioP1;P1;durP2;ratioP2;P2;SDS_P1;SDS_P2;PMS_P1;PMS_P2;Temp;Humidity;BMP_temperature;BMP_pressure;BME280_temperature;BME280_humidity;BME280_pressure;Samples;Min_cycle;Max_cycle;Signal;HPM_P1;HPM_P2
2021/12/11 00:02:11;;;;;;;40.88;18.10;;;4.00;99.90;;;;;;5052563;28;20032;-51
2021/12/11 00:04:41;;;;;;;43.33;19.35;;;4.00;99.90;;;;;;5053983;28;20094;-52
2021/12/11 00:07:12;;;;;;;42.10;17.70;;;4.00;99.90;;;;;;5054335;28;20565;-51
2021/12/11 00:09:40;;;;;;;;;;;4.00;99.90;;;;;;5053971;28;20036;-54
2021/12/11 00:12:15;;;;;;;47.20;17.65;;;3.90;99.90;;;;;;5053350;28;19915;-54
2021/12/11 00:14:43;;;;;;;45.33;18.83;;;4.00;99.90;;;;;;5051657;28;20490;-51
2021/12/11 00:17:11;;;;;;;42.10;18.17;;;4.00;99.90;;;;;;5052704;28;20123;-53
2021/12/11 00:19:39;;;;;;;45.90;19.38;;;4.00;99.90;;;;;;5052921;28;20070;-51
2021/12/11 00:22:13;;;;;;;46.53;18.58;;;4.00;99.90;;;;;;5053780;28;20477;-52
2021/12/11 00:24:40;;;;;;;47.38;18.70;;;3.90;99.90;;;;;;5053567;28;20033;-52
2021/12/11 00:27:15;;;;;;;42.53;18.67;;;3.80;99.90;;;;;;5053593;28;20029;-51
2021/12/11 00:29:42;;;;;;;38.97;17.88;;;3.80;99.90;;;;;;5051831;28;20075;-50
2021/12/11 00:32:17;;;;;;;40.20;18.50;;;3.80;99.90;;;;;;5052543;28;20033;-53
2021/12/11 00:34:43;;;;;;;46.47;19.90;;;3.80;99.90;;;;;;5053329;28;20029;-55
2021/12/11 00:37:12;;;;;;;43.03;19.08;;;3.90;99.90;;;;;;5053641;28;20020;-54
2021/12/11 00:39:54;;;;;;;54.10;18.85;;;3.90;99.90;;;;;;5054348;28;20104;-52
2021/12/11 00:42:23;;;;;;;42.80;19.10;;;3.90;99.90;;;;;;5057178;28;20029;-52
2021/12/11 00:44:55;;;;;;;41.92;18.45;;;3.90;99.90;;;;;;5055119;28;20033;-51
2021/12/11 00:47:32;;;;;;;46.88;18.90;;;3.90;99.90;;;;;;5056585;28;20032;-54
2021/12/11 00:50:08;;;;;;;47.03;18.27;;;3.90;99.90;;;;;;5056364;28;20033;-51
2021/12/11 00:52:42;;;;;;;52.33;19.85;;;3.80;99.90;;;;;;5056515;28;20029;-52
2021/12/11 00:55:27;;;;;;;46.30;19.55;;;3.90;99.90;;;;;;5056370;28;20032;-52
2021/12/11 00:58:21;;;;;;;48.20;18.75;;;3.90;99.90;;;;;;5054937;28;20025;-52
2021/12/11 01:00:56;;;;;;;45.78;19.52;;;3.80;99.90;;;;;;5056430;28;20032;-53
2021/12/11 01:03:27;;;;;;;49.78;19.83;;;3.80;99.90;;;;;;5057130;28;20036;-52
2021/12/11 01:05:55;;;;;;;43.33;19.83;;;3.70;99.90;;;;;;5056159;28;20493;-51
2021/12/11 01:08:35;;;;;;;45.95;19.73;;;3.80;99.90;;;;;;5055762;28;20393;-49
2021/12/11 01:11:28;;;;;;;43.35;19.65;;;3.80;99.90;;;;;;5054292;28;20032;-51
2021/12/11 01:14:22;;;;;;;43.28;18.05;;;3.80;99.90;;;;;;5055418;28;20190;-49
2021/12/11 01:17:12;;;;;;;47.53;18.83;;;3.90;99.90;;;;;;5055591;28;20029;-50
2021/12/11 01:19:40;;;;;;;45.15;18.75;;;4.00;99.90;;;;;;5054497;28;20171;-54
2021/12/11 01:22:19;;;;;;;43.90;19.00;;;4.00;99.90;;;;;;5056031;28;20447;-53
2021/12/11 01:24:46;;;;;;;44.20;18.80;;;4.00;99.90;;;;;;5055432;28;20107;-51
2021/12/11 01:27:18;;;;;;;46.90;19.83;;;4.00;99.90;;;;;;5055643;28;20087;-51
2021/12/11 01:29:46;;;;;;;48.90;19.42;;;4.00;99.90;;;;;;5055714;28;20029;-52
2021/12/11 01:32:14;;;;;;;46.42;20.35;;;4.00;99.90;;;;;;5055761;28;20032;-55
2021/12/11 01:34:40;;;;;;;51.13;18.92;;;4.00;99.90;;;;;;5056174;28;20075;-55
2021/12/11 01:37:06;;;;;;;45.83;20.05;;;4.00;99.90;;;;;;5055811;28;20031;-51
2021/12/11 01:39:35;;;;;;;47.70;20.65;;;4.00;99.90;;;;;;5055285;28;20096;-54
2021/12/11 01:42:14;;;;;;;56.40;20.35;;;4.00;99.90;;;;;;5055014;28;20377;-53
2021/12/11 01:44:42;;;;;;;54.15;20.05;;;4.00;99.90;;;;;;5053838;28;20025;-51
2021/12/11 01:47:18;;;;;;;47.03;20.65;;;4.00;99.90;;;;;;5054775;28;20025;-53
2021/12/11 01:49:46;;;;;;;49.35;20.02;;;4.00;99.90;;;;;;5054856;28;20039;-50
2021/12/11 01:52:30;;;;;;;49.53;20.70;;;4.10;99.90;;;;;;5055164;28;20397;-51
2021/12/11 01:54:56;;;;;;;51.42;19.40;;;4.10;99.90;;;;;;5054982;28;20029;-52
2021/12/11 01:57:25;;;;;;;42.47;19.83;;;4.10;99.90;;;;;;5053959;28;20068;-54
2021/12/11 01:59:57;;;;;;;48.00;19.67;;;4.10;99.90;;;;;;5054825;28;20032;-51
2021/12/11 02:02:31;;;;;;;51.78;21.30;;;4.10;99.90;;;;;;5055195;28;20014;-51
2021/12/11 02:04:57;;;;;;;50.10;21.98;;;4.20;99.90;;;;;;5055978;28;20024;-55
2021/12/11 02:07:30;;;;;;;41.67;19.38;;;4.20;99.90;;;;;;5056364;28;20477;-52
2021/12/11 02:10:00;;;;;;;49.47;20.33;;;4.20;99.90;;;;;;5053708;28;20075;-53
2021/12/11 02:12:36;;;;;;;51.30;20.25;;;4.30;99.90;;;;;;5055197;28;20028;-53
2021/12/11 02:15:10;;;;;;;47.38;19.45;;;4.20;99.90;;;;;;5055043;28;20107;-52
2021/12/11 02:17:53;;;;;;;46.53;19.65;;;4.20;99.90;;;;;;5055432;28;20025;-53
2021/12/11 02:20:37;;;;;;;44.50;19.55;;;4.30;99.90;;;;;;5055074;28;20036;-55
2021/12/11 02:23:04;;;;;;;43.15;18.92;;;4.30;99.90;;;;;;5054500;28;20017;-53
2021/12/11 02:25:34;;;;;;;48.90;20.70;;;4.30;99.90;;;;;;5053120;28;20511;-53
2021/12/11 02:28:19;;;;;;;48.17;19.50;;;4.30;99.90;;;;;;5055165;28;20043;-53
2021/12/11 02:30:48;;;;;;;46.67;20.15;;;4.30;99.90;;;;;;5054426;28;20032;-53
2021/12/11 02:33:17;;;;;;;40.35;18.67;;;4.30;99.90;;;;;;5054684;28;20265;-54
2021/12/11 02:36:09;;;;;;;46.83;18.90;;;4.30;99.90;;;;;;5053233;28;20017;-53
2021/12/11 02:39:07;;;;;;;49.55;18.95;;;4.30;99.90;;;;;;5054489;28;20028;-53
2021/12/11 02:41:38;;;;;;;39.85;19.67;;;4.20;99.90;;;;;;5054324;28;20024;-53
2021/12/11 02:44:41;;;;;;;45.55;19.30;;;4.10;99.90;;;;;;5052837;28;20367;-53
2021/12/11 02:47:16;;;;;;;51.47;20.67;;;4.00;99.90;;;;;;5036914;28;20032;-55
2021/12/11 02:49:55;;;;;;;56.20;21.00;;;3.90;99.90;;;;;;5054068;28;20068;-56
2021/12/11 02:52:46;;;;;;;44.17;20.38;;;3.90;99.90;;;;;;5054216;28;20029;-51
2021/12/11 02:55:12;;;;;;;;;;;3.90;99.90;;;;;;5054339;28;20388;-55
2021/12/11 02:57:42;;;;;;;50.13;19.15;;;3.90;99.90;;;;;;5053975;28;19904;-53
2021/12/11 03:00:34;;;;;;;46.97;19.90;;;3.90;99.90;;;;;;5052373;28;20120;-55
2021/12/11 03:03:05;;;;;;;46.40;19.50;;;4.00;99.90;;;;;;5051891;28;20029;-53
2021/12/11 03:05:40;;;;;;;43.97;19.27;;;4.00;99.90;;;;;;5054090;28;20029;-52
2021/12/11 03:08:09;;;;;;;51.22;18.65;;;3.90;99.90;;;;;;5053694;28;20044;-51
2021/12/11 03:10:36;;;;;;;49.90;19.52;;;3.90;99.90;;;;;;5053731;28;20074;-52
2021/12/11 03:13:04;;;;;;;49.63;20.20;;;3.90;99.90;;;;;;5052020;28;20025;-53
2021/12/11 03:15:30;;;;;;;52.72;19.38;;;3.90;99.90;;;;;;5053526;28;20032;-52
2021/12/11 03:17:56;;;;;;;50.50;19.65;;;4.00;99.90;;;;;;5053529;28;20076;-52
2021/12/11 03:20:23;;;;;;;44.20;19.75;;;4.00;99.90;;;;;;5053855;28;20021;-53
2021/12/11 03:22:50;;;;;;;47.53;20.38;;;4.00;99.90;;;;;;5052263;28;20025;-50
2021/12/11 03:25:20;;;;;;;45.22;18.88;;;4.10;99.90;;;;;;5053987;28;20032;-53
2021/12/11 03:27:46;;;;;;;45.63;20.52;;;4.10;99.90;;;;;;5053728;28;20043;-53
2021/12/11 03:30:22;;;;;;;46.72;18.80;;;4.00;99.90;;;;;;5053662;28;20033;-55
2021/12/11 03:32:55;;;;;;;47.25;19.17;;;3.90;99.90;;;;;;5053707;28;20075;-53
2021/12/11 03:35:22;;;;;;;47.60;19.25;;;3.90;99.90;;;;;;5053616;28;20342;-53
2021/12/11 03:37:48;;;;;;;44.10;19.30;;;3.90;99.90;;;;;;5053670;28;20027;-52
2021/12/11 03:40:15;;;;;;;44.53;20.20;;;3.90;99.90;;;;;;5052185;28;20026;-52
2021/12/11 03:42:43;;;;;;;51.83;19.50;;;3.90;99.90;;;;;;5053720;28;20021;-54
2021/12/11 03:45:16;;;;;;;42.67;18.15;;;3.90;99.90;;;;;;5053436;28;20058;-53
2021/12/11 03:47:47;;;;;;;46.50;18.90;;;3.90;99.90;;;;;;5054066;28;20017;-51
2021/12/11 03:50:14;;;;;;;49.05;19.48;;;3.80;99.90;;;;;;5054028;28;20025;-52
2021/12/11 03:52:45;;;;;;;41.75;19.63;;;3.80;99.90;;;;;;5053414;28;20243;-55
2021/12/11 03:55:13;;;;;;;;;;;3.90;99.90;;;;;;5053848;28;20044;-56
2021/12/11 03:57:41;;;;;;;54.42;19.27;;;3.90;99.90;;;;;;5053067;28;20393;-54
2021/12/11 04:00:12;;;;;;;48.42;19.10;;;4.00;99.90;;;;;;5053000;28;20110;-53
2021/12/11 04:02:38;;;;;;;39.78;18.85;;;3.90;99.90;;;;;;5053110;28;20032;-54
2021/12/11 04:05:07;;;;;;;43.17;18.42;;;3.90;99.90;;;;;;5053022;28;20033;-55
2021/12/11 04:07:38;;;;;;;41.97;18.50;;;4.00;99.90;;;;;;5054241;28;20026;-52
2021/12/11 04:10:07;;;;;;;42.60;18.00;;;4.00;99.90;;;;;;5053895;28;20021;-53
2021/12/11 04:12:33;;;;;;;42.90;18.45;;;4.00;99.90;;;;;;5052988;28;20036;-52
2021/12/11 04:14:58;;;;;;;44.90;19.40;;;4.00;99.90;;;;;;5057002;28;20108;-51
2021/12/11 04:17:27;;;;;;;46.20;19.27;;;4.00;99.90;;;;;;5056564;28;20076;-51
2021/12/11 04:19:59;;;;;;;42.72;19.35;;;4.00;99.90;;;;;;5056596;28;20101;-50
2021/12/11 04:22:26;;;;;;;50.65;20.63;;;3.80;99.90;;;;;;5055434;28;20035;-51
2021/12/11 04:24:52;;;;;;;48.53;19.67;;;3.80;99.90;;;;;;5056663;28;20140;-50
2021/12/11 04:27:21;;;;;;;49.03;19.98;;;3.80;99.90;;;;;;5056316;28;20136;-51
2021/12/11 04:29:50;;;;;;;50.38;20.35;;;3.80;99.90;;;;;;5056381;28;20086;-51
2021/12/11 04:32:16;;;;;;;47.95;20.63;;;3.70;99.90;;;;;;5056656;28;20400;-52
2021/12/11 04:34:42;;;;;;;53.05;20.20;;;3.60;99.90;;;;;;5056976;28;20385;-51
2021/12/11 04:37:17;;;;;;;53.72;20.75;;;3.70;99.90;;;;;;5056836;28;20099;-51
2021/12/11 04:39:47;;;;;;;43.53;19.83;;;3.70;99.90;;;;;;5056859;28;20108;-53
2021/12/11 04:44:55;;;;;;;49.92;19.75;;;3.70;99.90;;;;;;5056917;28;20025;-54
2021/12/11 04:47:34;;;;;;;56.53;19.77;;;3.70;99.90;;;;;;5056497;28;20040;-51
2021/12/11 04:50:06;;;;;;;55.28;21.33;;;3.70;99.90;;;;;;5056114;28;20028;-51
2021/12/11 04:52:34;;;;;;;52.78;20.13;;;3.70;99.90;;;;;;5056734;28;20028;-52
2021/12/11 05:00:44;;;;;;;45.33;19.60;;;3.60;99.90;;;;;;5058739;28;20115;-52
2021/12/11 05:03:34;;;;;;;44.80;20.13;;;3.60;99.90;;;;;;5056001;28;20025;-52
2021/12/11 05:06:24;;;;;;;51.70;20.08;;;3.60;99.90;;;;;;5055792;28;20393;-50
2021/12/11 05:11:43;;;;;;;47.17;20.42;;;3.70;99.90;;;;;;5057018;28;20108;-54
2021/12/11 05:14:13;;;;;;;51.15;21.02;;;3.70;99.90;;;;;;5056635;28;20060;-52
2021/12/11 05:16:39;;;;;;;45.97;20.08;;;3.70;99.90;;;;;;5056286;28;20030;-50
2021/12/11 05:19:05;;;;;;;47.90;20.73;;;3.70;99.90;;;;;;5056160;28;20024;-53
2021/12/11 05:21:33;;;;;;;50.72;20.70;;;3.70;99.90;;;;;;5055747;28;20032;-53
2021/12/11 05:23:59;;;;;;;43.63;19.80;;;3.80;99.90;;;;;;5056158;28;20056;-51
2021/12/11 05:26:25;;;;;;;43.35;20.13;;;3.80;99.90;;;;;;5055256;28;20025;-52
2021/12/11 05:28:51;;;;;;;47.95;19.88;;;3.80;99.90;;;;;;5055600;28;20029;-54
2021/12/11 05:31:17;;;;;;;52.42;21.27;;;3.80;99.90;;;;;;5055825;28;20100;-52
2021/12/11 05:33:45;;;;;;;49.17;21.17;;;3.80;99.90;;;;;;5055321;28;20025;-53
2021/12/11 05:36:16;;;;;;;45.63;20.40;;;3.90;99.90;;;;;;5055248;28;20024;-52
2021/12/11 05:38:43;;;;;;;46.00;20.05;;;3.90;99.90;;;;;;5055336;28;20017;-56
2021/12/11 05:41:12;;;;;;;47.15;20.60;;;4.00;99.90;;;;;;5055062;28;20025;-52
2021/12/11 05:43:39;;;;;;;47.28;19.77;;;4.10;99.90;;;;;;5054931;28;20073;-53
2021/12/11 05:46:07;;;;;;;40.25;18.50;;;4.00;99.90;;;;;;5054693;28;20231;-54
2021/12/11 05:48:33;;;;;;;50.13;20.70;;;4.00;99.90;;;;;;5055219;28;20424;-52
2021/12/11 05:51:03;;;;;;;47.13;19.15;;;3.90;99.90;;;;;;5054910;28;20481;-54
2021/12/11 05:53:31;;;;;;;43.47;19.00;;;3.90;99.90;;;;;;5054978;28;20032;-55
2021/12/11 05:55:59;;;;;;;48.65;19.90;;;3.80;99.90;;;;;;5054995;28;20024;-54
2021/12/11 06:01:10;;;;;;;43.47;19.55;;;3.70;99.90;;;;;;5055315;28;20529;-53
2021/12/11 06:03:37;;;;;;;42.42;19.85;;;3.60;99.90;;;;;;5054875;28;20056;-56
2021/12/11 06:06:04;;;;;;;43.55;19.40;;;3.50;99.90;;;;;;5055112;28;20025;-54
2021/12/11 06:08:31;;;;;;;39.97;19.48;;;3.50;99.90;;;;;;5054743;28;20048;-52
2021/12/11 06:10:57;;;;;;;44.38;19.90;;;3.50;99.90;;;;;;5055033;28;20033;-53
2021/12/11 06:13:25;;;;;;;43.10;20.70;;;3.40;99.90;;;;;;5054914;28;20021;-52
2021/12/11 06:15:51;;;;;;;42.67;19.23;;;3.30;99.90;;;;;;5054383;28;20017;-54
2021/12/11 06:18:18;;;;;;;44.20;18.88;;;3.30;99.90;;;;;;5055091;28;20040;-56
2021/12/11 06:20:45;;;;;;;40.60;19.05;;;3.30;99.90;;;;;;5054758;28;20029;-53
2021/12/11 06:23:11;;;;;;;41.47;19.60;;;3.30;99.90;;;;;;5053950;28;20493;-53
2021/12/11 06:25:37;;;;;;;51.65;19.83;;;3.30;99.90;;;;;;5054189;28;20028;-54
2021/12/11 06:28:05;;;;;;;40.42;19.63;;;3.30;99.90;;;;;;5053867;28;20021;-52
2021/12/11 06:30:31;;;;;;;39.35;19.42;;;3.30;99.90;;;;;;5054086;28;20035;-52
2021/12/11 06:32:57;;;;;;;42.20;19.17;;;3.30;99.90;;;;;;5054453;28;20029;-51
2021/12/11 06:35:45;;;;;;;41.22;18.35;;;3.30;99.90;;;;;;5054324;28;20035;-54
2021/12/11 06:38:14;;;;;;;41.90;19.77;;;3.40;99.90;;;;;;5053219;28;20041;-53
2021/12/11 06:40:40;;;;;;;39.90;19.50;;;3.40;99.90;;;;;;5053749;28;20021;-55
2021/12/11 06:43:06;;;;;;;47.85;20.27;;;3.30;99.90;;;;;;5053921;28;20074;-50
2021/12/11 06:45:32;;;;;;;44.15;20.95;;;3.20;99.90;;;;;;5054124;28;20024;-51
2021/12/11 06:47:58;;;;;;;45.53;20.02;;;3.20;99.90;;;;;;5054092;28;20021;-50
2021/12/11 06:50:24;;;;;;;45.25;20.13;;;3.10;99.90;;;;;;5053751;28;20017;-54
2021/12/11 06:52:52;;;;;;;39.70;18.83;;;3.10;99.90;;;;;;5055358;28;20047;-52
2021/12/11 06:55:19;;;;;;;44.33;19.33;;;3.00;99.90;;;;;;5054002;28;20137;-52
2021/12/11 06:57:47;;;;;;;43.13;20.23;;;3.00;99.90;;;;;;5052527;28;20048;-54
2021/12/11 07:00:15;;;;;;;42.88;20.17;;;3.00;99.90;;;;;;5053987;28;20490;-53
2021/12/11 07:02:40;;;;;;;49.35;20.25;;;2.90;99.90;;;;;;5053786;28;20100;-54
2021/12/11 07:05:06;;;;;;;48.28;21.33;;;2.90;99.90;;;;;;5054244;28;20115;-52
2021/12/11 07:07:34;;;;;;;42.50;20.02;;;2.80;99.90;;;;;;5053876;28;20033;-51
2021/12/11 07:10:04;;;;;;;42.13;20.90;;;2.80;99.90;;;;;;5053506;28;20115;-52
2021/12/11 07:12:29;;;;;;;41.10;20.15;;;2.80;99.90;;;;;;5053587;28;20052;-51
2021/12/11 07:14:55;;;;;;;51.15;21.40;;;2.80;99.90;;;;;;5053394;28;20033;-52
2021/12/11 07:17:22;;;;;;;51.65;21.67;;;2.80;99.90;;;;;;5052308;28;20064;-51
2021/12/11 07:19:47;;;;;;;48.88;21.67;;;2.90;99.90;;;;;;5053263;28;20048;-51
2021/12/11 07:22:14;;;;;;;42.38;20.08;;;2.80;99.90;;;;;;5053318;28;20398;-53
2021/12/11 07:24:52;;;;;;;42.03;22.23;;;2.70;99.90;;;;;;5053358;28;20037;-55
2021/12/11 07:27:18;;;;;;;42.53;20.85;;;2.70;99.90;;;;;;5053096;28;20119;-54
2021/12/11 07:29:44;;;;;;;49.47;21.75;;;2.70;99.90;;;;;;5053396;28;20433;-55
2021/12/11 07:32:11;;;;;;;44.58;20.52;;;2.70;99.90;;;;;;5054189;28;20029;-55
2021/12/11 07:34:37;;;;;;;42.15;20.30;;;2.70;99.90;;;;;;5053908;28;20062;-53
2021/12/11 07:37:04;;;;;;;40.22;20.58;;;2.60;99.90;;;;;;5055840;28;20102;-52
2021/12/11 07:39:31;;;;;;;41.83;19.90;;;2.60;99.90;;;;;;5056156;28;20036;-54
2021/12/11 07:41:57;;;;;;;47.42;22.10;;;2.60;99.90;;;;;;5055451;28;20029;-53
2021/12/11 07:44:24;;;;;;;43.33;21.48;;;2.60;99.90;;;;;;5054873;28;20025;-53
2021/12/11 07:46:51;;;;;;;50.30;21.45;;;2.60;99.90;;;;;;5055258;28;20021;-55
2021/12/11 07:49:16;;;;;;;46.10;21.48;;;2.60;99.90;;;;;;5057381;28;20029;-53
2021/12/11 07:51:42;;;;;;;45.17;21.33;;;2.60;99.90;;;;;;5057776;28;20079;-55
2021/12/11 07:54:08;;;;;;;40.75;21.92;;;2.60;99.90;;;;;;5058027;28;20027;-55
2021/12/11 07:56:36;;;;;;;43.55;21.67;;;2.60;99.90;;;;;;5058337;28;20107;-53
2021/12/11 07:59:05;;;;;;;53.22;23.08;;;2.60;99.90;;;;;;5058314;28;20074;-55
2021/12/11 08:01:33;;;;;;;46.15;21.50;;;2.60;99.90;;;;;;5057521;28;20025;-58
2021/12/11 08:04:03;;;;;;;50.90;21.75;;;2.70;99.90;;;;;;5056853;28;20401;-55
2021/12/11 08:06:30;;;;;;;46.33;21.55;;;2.60;99.90;;;;;;5055429;28;20396;-54
2021/12/11 08:08:56;;;;;;;48.13;22.45;;;2.70;99.90;;;;;;5057143;28;20035;-55
2021/12/11 08:11:22;;;;;;;47.95;22.02;;;2.70;99.90;;;;;;5056802;28;20024;-54
2021/12/11 08:13:50;;;;;;;49.72;22.92;;;2.70;99.90;;;;;;5056895;28;20473;-54
2021/12/11 08:16:21;;;;;;;49.40;22.15;;;2.70;99.90;;;;;;5055305;28;20037;-56
2021/12/11 08:18:47;;;;;;;49.00;23.38;;;2.70;99.90;;;;;;5056762;28;20025;-53
2021/12/11 08:21:13;;;;;;;43.60;21.40;;;2.80;99.90;;;;;;5056192;28;20033;-51
2021/12/11 08:23:43;;;;;;;54.90;23.60;;;2.90;99.90;;;;;;5056637;28;20028;-51
2021/12/11 08:26:20;;;;;;;47.63;22.20;;;3.00;99.90;;;;;;5056930;28;20021;-54
2021/12/11 08:28:47;;;;;;;51.55;22.92;;;3.00;99.90;;;;;;5056465;28;20116;-57
2021/12/11 08:31:14;;;;;;;49.00;24.35;;;3.20;99.90;;;;;;5055678;28;20033;-54
2021/12/11 08:33:40;;;;;;;48.78;22.13;;;3.20;99.90;;;;;;5056143;28;20049;-56
2021/12/11 08:36:07;;;;;;;44.75;21.88;;;3.30;99.90;;;;;;5058779;28;20090;-53
2021/12/11 08:38:32;;;;;;;43.03;23.10;;;3.40;99.90;;;;;;5061853;28;20029;-55
2021/12/11 08:41:01;;;;;;;47.03;23.58;;;3.50;99.90;;;;;;5068337;28;20020;-52
2021/12/11 08:43:28;;;;;;;45.75;22.50;;;3.60;99.90;;;;;;5076409;28;20040;-53
2021/12/11 08:46:14;;;;;;;48.45;22.50;;;3.60;99.90;;;;;;5076137;28;20056;-52
2021/12/11 08:48:43;;;;;;;43.85;22.80;;;3.60;99.90;;;;;;5075895;28;20031;-56
2021/12/11 08:51:14;;;;;;;50.55;23.25;;;3.50;99.90;;;;;;5075669;28;20021;-54
2021/12/11 08:53:40;;;;;;;49.17;22.85;;;3.60;99.90;;;;;;5075891;28;20028;-55
2021/12/11 08:56:09;;;;;;;57.25;22.15;;;3.60;99.90;;;;;;5075674;28;20025;-54
2021/12/11 08:58:36;;;;;;;50.72;22.27;;;3.70;99.90;;;;;;5074086;28;20020;-55
2021/12/11 09:01:11;;;;;;;45.00;22.40;;;3.70;99.90;;;;;;5074441;28;20386;-56
2021/12/11 09:03:42;;;;;;;53.33;21.15;;;3.80;99.90;;;;;;5075996;28;20361;-52
2021/12/11 09:06:27;;;;;;;49.17;22.85;;;3.80;99.90;;;;;;5075853;28;20048;-52
2021/12/11 09:08:58;;;;;;;51.20;23.05;;;3.80;99.90;;;;;;5075433;28;20467;-52
2021/12/11 09:11:32;;;;;;;44.50;22.55;;;3.80;99.90;;;;;;5074977;28;20028;-53
2021/12/11 09:14:07;;;;;;;49.83;23.27;;;3.80;99.90;;;;;;5074784;28;20024;-53
2021/12/11 09:16:42;;;;;;;48.13;22.38;;;3.80;99.90;;;;;;5034905;28;20116;-52
2021/12/11 09:19:10;;;;;;;48.83;22.80;;;3.90;99.90;;;;;;5037283;28;20044;-51
2021/12/11 09:21:50;;;;;;;41.40;22.08;;;3.90;99.90;;;;;;5040589;28;20108;-52
2021/12/11 09:24:24;;;;;;;45.63;21.83;;;3.90;99.90;;;;;;5063751;28;20393;-55
2021/12/11 09:26:56;;;;;;;49.30;23.13;;;3.90;99.90;;;;;;5061818;28;20027;-52
2021/12/11 09:29:32;;;;;;;47.47;23.52;;;3.90;99.90;;;;;;5058195;28;20021;-50
2021/12/11 09:31:58;;;;;;;47.42;23.63;;;3.90;99.90;;;;;;5061773;28;20426;-52
2021/12/11 09:34:27;;;;;;;47.65;22.60;;;4.00;99.90;;;;;;5063901;28;20090;-53
2021/12/11 09:36:57;;;;;;;45.50;22.23;;;4.00;99.90;;;;;;5063268;28;20120;-51
2021/12/11 09:39:36;;;;;;;51.97;24.33;;;4.10;99.90;;;;;;5059468;28;20402;-54
2021/12/11 09:42:01;;;;;;;50.22;23.63;;;4.00;99.90;;;;;;5061847;28;20066;-55
2021/12/11 09:44:34;;;;;;;46.90;22.75;;;4.10;99.90;;;;;;5063244;28;20430;-52
2021/12/11 09:47:18;;;;;;;45.92;23.45;;;4.10;99.90;;;;;;5063874;28;20066;-50
2021/12/11 09:49:52;;;;;;;50.45;23.35;;;4.10;99.90;;;;;;5065573;28;20111;-51
2021/12/11 09:52:24;;;;;;;54.92;23.30;;;4.10;99.90;;;;;;5074177;28;20369;-54
2021/12/11 09:54:58;;;;;;;46.22;22.52;;;4.10;99.90;;;;;;5067796;28;20078;-54
2021/12/11 09:57:27;;;;;;;49.53;23.25;;;4.20;99.90;;;;;;5061270;28;20021;-52
2021/12/11 09:59:55;;;;;;;45.35;22.88;;;4.20;99.90;;;;;;5061682;28;20009;-50
2021/12/11 10:02:27;;;;;;;44.78;23.33;;;4.10;99.90;;;;;;5063104;28;20058;-51
2021/12/11 10:05:00;;;;;;;53.95;23.92;;;4.10;99.90;;;;;;5061867;28;20034;-51
2021/12/11 10:07:36;;;;;;;51.70;22.90;;;4.10;99.90;;;;;;5063002;28;20164;-52
2021/12/11 10:10:24;;;;;;;53.75;24.38;;;4.10;99.90;;;;;;5060184;28;20028;-51
2021/12/11 10:12:56;;;;;;;40.72;21.60;;;4.20;99.90;;;;;;5061944;28;20024;-51
2021/12/11 10:15:26;;;;;;;46.58;22.85;;;4.20;99.90;;;;;;5056329;28;20115;-51
2021/12/11 10:17:59;;;;;;;52.45;22.70;;;4.30;99.90;;;;;;5053613;28;20490;-50
2021/12/11 10:20:34;;;;;;;51.47;22.42;;;4.40;99.90;;;;;;5053527;28;20055;-53
2021/12/11 10:23:02;;;;;;;46.40;22.20;;;4.40;99.90;;;;;;5053583;28;20393;-53
2021/12/11 10:25:32;;;;;;;46.10;22.55;;;4.30;99.90;;;;;;5053798;28;20385;-54
2021/12/11 10:28:00;;;;;;;47.90;21.87;;;4.30;99.90;;;;;;5069418;28;20059;-57
2021/12/11 10:30:29;;;;;;;51.38;20.33;;;4.30;99.90;;;;;;5072155;28;20421;-55
2021/12/11 10:32:55;;;;;;;43.95;20.95;;;4.40;99.90;;;;;;5073713;28;20036;-53
2021/12/11 10:35:27;;;;;;;43.50;22.65;;;4.40;99.90;;;;;;5073461;28;20051;-55
2021/12/11 10:37:53;;;;;;;48.42;21.40;;;4.50;99.90;;;;;;5073284;28;20021;-51
2021/12/11 10:40:22;;;;;;;49.70;22.00;;;4.40;99.90;;;;;;5073335;28;20025;-53
2021/12/11 10:42:56;;;;;;;44.40;20.60;;;4.50;99.90;;;;;;5073093;28;20067;-53
2021/12/11 10:45:26;;;;;;;41.60;20.42;;;4.60;99.90;;;;;;5065932;28;20040;-53
2021/12/11 10:47:56;;;;;;;48.42;20.02;;;4.60;99.90;;;;;;5060017;28;20109;-53
2021/12/11 10:50:31;;;;;;;39.90;19.25;;;4.60;99.90;;;;;;5061578;28;20025;-50
2021/12/11 10:52:57;;;;;;;36.33;19.40;;;4.70;99.90;;;;;;5059785;28;20013;-54
2021/12/11 10:55:26;;;;;;;42.65;20.80;;;4.80;99.90;;;;;;5063976;28;20048;-52
2021/12/11 10:57:54;;;;;;;35.45;19.30;;;4.80;99.90;;;;;;5058579;28;20037;-52
2021/12/11 11:00:47;;;;;;;40.03;18.70;;;4.80;99.90;;;;;;5063421;28;20550;-55
2021/12/11 11:03:15;;;;;;;43.15;20.17;;;4.80;99.90;;;;;;5060110;28;20115;-55
2021/12/11 11:05:41;;;;;;;39.38;19.25;;;4.90;99.90;;;;;;5058303;28;20017;-55
2021/12/11 11:08:07;;;;;;;40.72;19.10;;;4.90;99.90;;;;;;5061974;28;20448;-54
2021/12/11 11:10:37;;;;;;;40.45;19.90;;;4.90;99.90;;;;;;5060863;28;20436;-53
2021/12/11 11:13:08;;;;;;;43.15;20.42;;;4.90;99.90;;;;;;5057891;28;20507;-54
2021/12/11 11:15:36;;;;;;;38.83;18.02;;;4.80;99.90;;;;;;5081280;22;20029;-70
2021/12/11 11:18:03;;;;;;;34.38;18.15;;;4.80;99.90;;;;;;5105484;22;20043;-70
2021/12/11 11:20:35;;;;;;;42.55;17.73;;;4.80;99.90;;;;;;5094516;28;20035;-70
2021/12/11 11:23:01;;;;;;;40.47;17.55;;;4.80;99.90;;;;;;5095212;28;20020;-70
2021/12/11 11:25:31;;;;;;;38.38;18.70;;;4.90;99.90;;;;;;5096506;28;20067;-70
2021/12/11 11:28:05;;;;;;;37.15;18.15;;;5.00;99.90;;;;;;5089877;28;20020;-70
2021/12/11 11:30:39;;;;;;;39.08;18.85;;;5.10;99.90;;;;;;5073287;28;20377;-70
2021/12/11 11:33:08;;;;;;;37.38;18.75;;;5.10;99.90;;;;;;5073383;28;20037;-70
2021/12/11 11:35:38;;;;;;;36.40;17.15;;;5.20;99.90;;;;;;5072779;28;20451;-70
2021/12/11 11:38:05;;;;;;;35.17;16.65;;;5.30;99.90;;;;;;5073665;28;20105;-70
2021/12/11 11:40:35;;;;;;;34.65;16.27;;;5.40;99.90;;;;;;5073650;28;20107;-70
2021/12/11 11:43:01;;;;;;;36.70;17.33;;;5.50;99.90;;;;;;5073676;28;20031;-70
2021/12/11 11:45:29;;;;;;;34.38;16.15;;;5.60;99.90;;;;;;5073192;28;20028;-70
2021/12/11 11:47:56;;;;;;;28.58;16.30;;;5.70;99.90;;;;;;5072980;28;20082;-70
2021/12/11 11:50:28;;;;;;;30.30;14.25;;;5.80;99.90;;;;;;5072591;28;20445;-69
2021/12/11 11:52:54;;;;;;;32.22;15.05;;;5.90;99.90;;;;;;5072811;28;20035;-71
2021/12/11 11:55:25;;;;;;;28.38;14.27;;;6.00;99.90;;;;;;5072292;28;20024;-68
2021/12/11 11:57:53;;;;;;;24.08;12.30;;;6.10;99.90;;;;;;5072535;28;20443;-70
2021/12/11 12:00:29;;;;;;;22.50;12.20;;;6.10;99.90;;;;;;5072288;28;20338;-70
2021/12/11 12:02:56;;;;;;;26.92;13.20;;;6.10;99.90;;;;;;5072668;28;20096;-70
2021/12/11 12:05:23;;;;;;;24.80;12.20;;;6.10;99.90;;;;;;5072786;28;20373;-70
2021/12/11 12:07:49;;;;;;;25.15;12.10;;;6.10;99.90;;;;;;5072618;28;20576;-70
2021/12/11 12:10:20;;;;;;;26.27;13.02;;;6.20;99.90;;;;;;5072521;28;20052;-71
2021/12/11 12:12:45;;;;;;;20.40;11.60;;;6.20;99.90;;;;;;5072493;28;20028;-70
2021/12/11 12:15:18;;;;;;;21.17;11.57;;;6.10;99.90;;;;;;5072938;28;20104;-70
2021/12/11 12:17:44;;;;;;;18.55;10.20;;;6.20;99.90;;;;;;5072931;28;20136;-70
2021/12/11 12:20:13;;;;;;;26.20;11.68;;;6.10;99.90;;;;;;5071109;28;20366;-70
2021/12/11 12:22:41;;;;;;;24.92;11.10;;;6.10;99.90;;;;;;5072430;28;20062;-70
2021/12/11 12:25:07;;;;;;;21.88;10.55;;;6.20;99.90;;;;;;5072192;28;20032;-70
2021/12/11 12:27:36;;;;;;;19.10;10.07;;;6.10;99.90;;;;;;5071847;28;20108;-70
2021/12/11 12:30:06;;;;;;;20.38;10.88;;;6.10;99.90;;;;;;5073369;28;20029;-71
2021/12/11 12:32:36;;;;;;;19.95;10.35;;;6.20;99.90;;;;;;5078762;28;20476;-71
2021/12/11 12:35:06;;;;;;;17.85;10.23;;;6.10;99.90;;;;;;5075541;28;20037;-70
2021/12/11 12:37:32;;;;;;;18.40;10.50;;;6.10;99.90;;;;;;5075805;28;20025;-71
2021/12/11 12:39:59;;;;;;;20.73;10.07;;;6.10;99.90;;;;;;5074152;28;20039;-71
2021/12/11 12:42:36;;;;;;;20.58;10.50;;;6.00;99.90;;;;;;5074337;28;20397;-71
2021/12/11 12:45:25;;;;;;;20.73;9.95;;;6.10;99.90;;;;;;5075620;28;20023;-70
2021/12/11 12:47:59;;;;;;;19.08;10.00;;;6.10;99.90;;;;;;5075331;28;20029;-71
2021/12/11 12:50:40;;;;;;;15.32;8.82;;;6.20;99.90;;;;;;5075764;28;20074;-71
2021/12/11 12:53:06;;;;;;;17.42;9.32;;;6.20;99.90;;;;;;5075745;28;20027;-71
2021/12/11 12:56:04;;;;;;;14.98;8.48;;;6.30;99.90;;;;;;5076049;28;20567;-72
2021/12/11 12:58:34;;;;;;;17.98;8.52;;;6.40;99.90;;;;;;5057000;28;20554;-71
2021/12/11 13:01:10;;;;;;;18.48;8.82;;;6.50;99.90;;;;;;5058360;28;20121;-71
2021/12/11 13:03:38;;;;;;;17.50;8.57;;;6.60;99.90;;;;;;5086623;28;20024;-71
2021/12/11 13:06:11;;;;;;;20.50;9.65;;;6.50;99.90;;;;;;5091264;28;20033;-71
2021/12/11 13:08:45;;;;;;;22.00;10.18;;;6.50;99.90;;;;;;5087438;28;20051;-70
2021/12/11 13:11:22;;;;;;;19.75;9.95;;;6.50;99.90;;;;;;5082447;28;20397;-72